Time;durP1;ratioP1;P1;durP2;ratioP2;P2;SDS_P1;SDS_P2;PMS_P1;PMS_P2;Temp;Humidity;BMP_temperature;BMP_pressure;BME280_temperature;BME280_humidity;BME280_pressure;Samples;Min_cycle;Max_cycle;Signal;HPM_P1;HPM_P2
2022/01/19 00:01:34;;;;;;;55.13;26.30;;;4.40;99.90;;;;;;6245152;22;20023;-81
2022/01/19 00:03:59;;;;;;;51.97;25.45;;;4.50;99.90;;;;;;6244348;22;20061;-80
2022/01/19 00:06:25;;;;;;;45.30;22.60;;;4.50;99.90;;;;;;6243698;22;20011;-81
2022/01/19 00:08:52;;;;;;;43.13;20.95;;;4.40;99.90;;;;;;6244388;22;20111;-80
2022/01/19 00:11:18;;;;;;;43.97;22.25;;;4.40;99.90;;;;;;6245157;22;20392;-78
2022/01/19 00:13:44;;;;;;;49.70;22.75;;;4.40;99.90;;;;;;6220603;22;20090;-79
2022/01/19 00:16:09;;;;;;;49.63;22.65;;;4.40;99.90;;;;;;6245293;22;20074;-79
2022/01/19 00:18:35;;;;;;;54.88;24.80;;;4.40;99.90;;;;;;6220002;22;20015;-78
2022/01/19 00:21:01;;;;;;;46.88;21.63;;;4.30;99.90;;;;;;6220048;22;20069;-82
2022/01/19 00:23:27;;;;;;;47.67;21.95;;;4.30;99.90;;;;;;6246227;22;20019;-78
2022/01/19 00:25:54;;;;;;;51.65;21.83;;;4.30;99.90;;;;;;6242391;22;20412;-80
2022/01/19 00:28:21;;;;;;;49.25;21.45;;;4.30;99.90;;;;;;6245830;22;20082;-81
2022/01/19 00:30:47;;;;;;;50.58;21.05;;;4.30;99.90;;;;;;6245652;22;20047;-79
2022/01/19 00:33:14;;;;;;;40.58;19.38;;;4.30;99.90;;;;;;6244437;22;20317;-78
2022/01/19 00:35:40;;;;;;;53.33;21.20;;;4.30;99.90;;;;;;6245470;22;20073;-80
2022/01/19 00:38:08;;;;;;;50.38;21.85;;;4.20;99.90;;;;;;6221345;22;20023;-82
2022/01/19 00:40:35;;;;;;;49.33;20.63;;;4.20;99.90;;;;;;6271376;22;20415;-79
2022/01/19 00:43:01;;;;;;;48.42;21.17;;;4.30;99.90;;;;;;6245534;22;20038;-79
2022/01/19 00:45:26;;;;;;;44.40;20.10;;;4.30;99.90;;;;;;6219603;22;20491;-78
2022/01/19 00:47:52;;;;;;;43.55;19.42;;;4.30;99.90;;;;;;6245249;22;20014;-77
2022/01/19 00:50:22;;;;;;;49.30;20.65;;;4.20;99.90;;;;;;6245049;22;20095;-79
2022/01/19 00:52:49;;;;;;;46.47;20.83;;;4.20;99.90;;;;;;6245631;22;20026;-79
2022/01/19 00:55:15;;;;;;;42.53;20.20;;;4.30;99.90;;;;;;6245137;22;20313;-81
2022/01/19 00:57:41;;;;;;;44.20;21.73;;;4.20;99.90;;;;;;6246163;22;20018;-80
2022/01/19 01:00:12;;;;;;;51.65;22.63;;;4.10;99.90;;;;;;6245937;22;20095;-81
2022/01/19 01:02:37;;;;;;;49.53;23.80;;;4.10;99.90;;;;;;6220936;22;20018;-81
2022/01/19 01:05:04;;;;;;;51.00;22.75;;;4.10;99.90;;;;;;6221951;22;20008;-82
2022/01/19 01:07:33;;;;;;;49.10;21.73;;;4.10;99.90;;;;;;6223177;22;20023;-80
2022/01/19 01:09:59;;;;;;;45.72;21.48;;;4.10;99.90;;;;;;6247200;22;20396;-79
2022/01/19 01:12:41;;;;;;;53.95;23.48;;;4.10;99.90;;;;;;6246525;22;20020;-81
2022/01/19 01:20:35;;;;;;;59.55;24.85;;;4.10;99.90;;;;;;6247144;22;19930;-78
2022/01/19 01:23:02;;;;;;;63.50;28.20;;;4.10;99.90;;;;;;6246472;22;20391;-81
2022/01/19 01:25:28;;;;;;;64.20;28.60;;;4.10;99.90;;;;;;6221472;22;20016;-78
2022/01/19 01:27:53;;;;;;;73.65;30.10;;;4.10;99.90;;;;;;6247650;22;20012;-80
2022/01/19 01:30:20;;;;;;;77.95;30.55;;;4.10;99.90;;;;;;6223015;22;20472;-79
2022/01/19 01:32:46;;;;;;;77.25;29.80;;;4.10;99.90;;;;;;6221301;22;20047;-78
2022/01/19 01:35:12;;;;;;;76.57;30.23;;;4.10;99.90;;;;;;6247640;22;20314;-79
2022/01/19 01:37:37;;;;;;;80.05;31.10;;;4.10;99.90;;;;;;6223549;22;20098;-79
2022/01/19 01:40:05;;;;;;;83.05;31.70;;;4.10;99.90;;;;;;6247891;22;20091;-81
2022/01/19 01:42:32;;;;;;;74.10;30.25;;;4.10;99.90;;;;;;6247857;22;20069;-79
2022/01/19 01:45:00;;;;;;;68.95;28.30;;;4.10;99.90;;;;;;6247658;22;20335;-80
2022/01/19 01:47:27;;;;;;;71.43;28.98;;;4.10;99.90;;;;;;6248052;22;20016;-80
2022/01/19 01:55:15;;;;;;;83.47;29.23;;;4.00;99.90;;;;;;6275639;22;20024;-80
2022/01/19 01:57:42;;;;;;;79.13;30.08;;;4.00;99.90;;;;;;6197655;22;20016;-81
2022/01/19 02:00:11;;;;;;;74.28;28.52;;;4.00;99.90;;;;;;6248343;22;20015;-80
2022/01/19 02:02:39;;;;;;;83.10;30.77;;;4.10;99.90;;;;;;6247796;22;20162;-79
2022/01/19 02:05:09;;;;;;;85.47;30.48;;;4.10;99.90;;;;;;6222588;22;20086;-81
2022/01/19 02:10:28;;;;;;;81.20;30.70;;;4.10;99.90;;;;;;6246843;22;20016;-81
2022/01/19 02:23:54;;;;;;;93.82;31.10;;;4.20;99.90;;;;;;6247331;22;20297;-81
2022/01/19 02:26:29;;;;;;;91.85;30.85;;;4.50;99.90;;;;;;6222186;22;20431;-79
2022/01/19 02:29:14;;;;;;;88.25;31.02;;;4.20;99.90;;;;;;6222482;22;20008;-81
2022/01/19 02:40:11;;;;;;;90.10;32.00;;;4.20;99.90;;;;;;6247170;22;20054;-79
2022/01/19 02:42:51;;;;;;;87.68;31.13;;;4.20;99.90;;;;;;6222478;22;20012;-82
2022/01/19 02:50:30;;;;;;;83.30;30.20;;;4.30;99.90;;;;;;6247752;22;20460;-82
2022/01/19 02:52:55;;;;;;;83.38;32.50;;;4.30;99.90;;;;;;6246571;22;20016;-78
2022/01/19 02:55:22;;;;;;;93.03;31.80;;;4.30;99.90;;;;;;6274561;22;20035;-79
2022/01/19 02:57:48;;;;;;;99.82;32.80;;;4.30;99.90;;;;;;6246984;22;20043;-78
2022/01/19 03:11:16;;;;;;;110.22;35.30;;;4.30;99.90;;;;;;6247520;22;20140;-78
2022/01/19 03:13:43;;;;;;;110.60;36.03;;;4.30;99.90;;;;;;6247800;22;20289;-80
2022/01/19 03:16:09;;;;;;;101.05;33.33;;;4.30;99.90;;;;;;6220040;22;20038;-79
2022/01/19 03:18:35;;;;;;;108.90;33.63;;;4.30;99.90;;;;;;6245709;22;20011;-82
2022/01/19 03:21:01;;;;;;;112.18;32.83;;;4.20;99.90;;;;;;6246789;22;20107;-81
2022/01/19 03:23:27;;;;;;;98.32;31.30;;;4.40;99.90;;;;;;6247537;22;20110;-80
2022/01/19 03:25:54;;;;;;;120.18;33.75;;;4.30;99.90;;;;;;6221097;22;20019;-79
2022/01/19 03:28:20;;;;;;;116.13;34.10;;;4.20;99.90;;;;;;6247115;22;20022;-79
2022/01/19 03:30:47;;;;;;;140.07;36.75;;;4.30;99.90;;;;;;6247194;22;20086;-80
2022/01/19 03:33:13;;;;;;;121.95;33.70;;;4.20;99.90;;;;;;6246189;22;20028;-79
2022/01/19 03:35:39;;;;;;;90.40;30.30;;;4.20;99.90;;;;;;6221599;22;20011;-82
2022/01/19 03:38:08;;;;;;;98.10;30.35;;;4.20;99.90;;;;;;6221508;22;20280;-80
2022/01/19 03:40:35;;;;;;;103.22;29.88;;;4.20;99.90;;;;;;6246142;22;20019;-79
2022/01/19 03:43:05;;;;;;;120.72;32.13;;;4.60;99.90;;;;;;6221553;22;20114;-77
2022/01/19 03:45:34;;;;;;;111.38;32.15;;;4.10;99.90;;;;;;6221865;22;20012;-79
2022/01/19 03:50:33;;;;;;;105.65;32.00;;;4.10;99.90;;;;;;6244044;22;20093;-79
2022/01/19 03:52:59;;;;;;;104.07;31.88;;;4.10;99.90;;;;;;6243488;22;20022;-79
2022/01/19 03:55:25;;;;;;;106.50;29.55;;;4.20;99.90;;;;;;6216412;22;20011;-78
2022/01/19 03:57:51;;;;;;;105.13;31.00;;;4.10;99.90;;;;;;6218554;22;20086;-80
2022/01/19 04:00:18;;;;;;;126.05;31.02;;;4.10;99.90;;;;;;6221979;22;20502;-78
2022/01/19 04:02:44;;;;;;;100.60;31.60;;;4.00;99.90;;;;;;6221210;22;20019;-79
2022/01/19 04:05:41;;;;;;;99.97;30.80;;;4.10;99.90;;;;;;6221158;22;20011;-80
2022/01/19 04:07:56;;;;;;;97.35;30.33;;;4.10;99.90;;;;;;6245998;22;20095;-78
2022/01/19 04:10:21;;;;;;;93.45;31.65;;;4.00;99.90;;;;;;6246443;22;20050;-81
2022/01/19 04:12:55;;;;;;;94.30;30.30;;;4.00;99.90;;;;;;6246567;22;20081;-80
2022/01/19 04:15:21;;;;;;;90.78;29.45;;;4.00;99.90;;;;;;6221077;22;20018;-80
2022/01/19 04:17:53;;;;;;;88.40;28.88;;;4.00;99.90;;;;;;6246272;22;20012;-79
2022/01/19 04:20:25;;;;;;;94.63;29.50;;;4.00;99.90;;;;;;6221229;22;20355;-79
2022/01/19 04:22:50;;;;;;;95.30;31.33;;;4.00;99.90;;;;;;6221459;22;20015;-81
2022/01/19 04:25:16;;;;;;;91.47;30.67;;;3.90;99.90;;;;;;6220164;22;20376;-78
2022/01/19 04:27:43;;;;;;;97.65;30.30;;;3.90;99.90;;;;;;6246430;22;20087;-82
2022/01/19 04:30:12;;;;;;;95.45;29.98;;;4.00;99.90;;;;;;6246987;22;20087;-81
2022/01/19 04:32:52;;;;;;;75.78;24.63;;;3.90;99.90;;;;;;6246017;22;20384;-78
2022/01/19 04:35:24;;;;;;;92.82;29.30;;;3.90;99.90;;;;;;6217578;22;20069;-79
2022/01/19 05:04:55;;;;;;;92.43;30.63;;;4.00;99.90;;;;;;6248121;22;20020;-80
2022/01/19 05:07:31;;;;;;;87.57;31.30;;;4.00;99.90;;;;;;6201804;22;20110;-79
2022/01/19 05:13:24;;;;;;;81.32;30.67;;;3.90;99.90;;;;;;6248125;22;20012;-82
2022/01/19 05:15:32;;;;;;;81.35;29.70;;;3.90;99.90;;;;;;6249357;22;20294;-81
2022/01/19 05:17:58;;;;;;;70.70;31.10;;;3.90;99.90;;;;;;6223338;22;20015;-82
2022/01/19 05:20:24;;;;;;;77.30;30.20;;;4.50;99.90;;;;;;6222595;22;20053;-82
2022/01/19 05:22:49;;;;;;;74.20;30.17;;;3.90;99.90;;;;;;6222651;22;20019;-79
2022/01/19 05:25:15;;;;;;;71.78;29.85;;;4.00;99.90;;;;;;6247107;22;20487;-81
2022/01/19 05:27:40;;;;;;;78.32;29.45;;;3.90;99.90;;;;;;6248062;22;20015;-79
2022/01/19 05:30:07;;;;;;;74.32;30.00;;;3.90;99.90;;;;;;6222851;22;20011;-78
2022/01/19 05:32:32;;;;;;;79.55;30.60;;;3.90;99.90;;;;;;6222516;22;20077;-80
2022/01/19 05:34:58;;;;;;;70.78;30.48;;;3.90;99.90;;;;;;6223051;22;20851;-80
2022/01/19 05:37:24;;;;;;;74.72;30.88;;;3.90;99.90;;;;;;6223043;22;20027;-81
2022/01/19 05:39:49;;;;;;;78.85;30.27;;;4.60;99.90;;;;;;6221973;22;20317;-79
2022/01/19 05:42:16;;;;;;;79.20;30.23;;;3.90;99.90;;;;;;6223484;22;20023;-82
2022/01/19 05:44:43;;;;;;;69.60;29.50;;;3.90;99.90;;;;;;6222972;22;20075;-80
2022/01/19 05:47:11;;;;;;;77.32;30.63;;;3.90;99.90;;;;;;6247785;22;20339;-81
2022/01/19 05:49:37;;;;;;;76.47;30.10;;;4.30;99.90;;;;;;6248066;22;20012;-79
2022/01/19 05:52:04;;;;;;;77.65;30.60;;;3.90;99.90;;;;;;6221845;22;20078;-82
2022/01/19 05:54:30;;;;;;;77.50;31.73;;;3.80;99.90;;;;;;6220411;22;20411;-80
2022/01/19 05:56:56;;;;;;;67.82;29.60;;;4.40;99.90;;;;;;6218379;22;20012;-80
2022/01/19 05:59:22;;;;;;;71.78;29.80;;;3.90;99.90;;;;;;6244694;22;20304;-79
2022/01/19 06:01:48;;;;;;;71.00;28.70;;;3.90;99.90;;;;;;6219153;22;20451;-79
2022/01/19 06:04:14;;;;;;;70.22;29.55;;;3.80;99.90;;;;;;6247222;22;20016;-81
2022/01/19 06:06:39;;;;;;;67.15;30.60;;;3.90;99.90;;;;;;6222755;22;20478;-81
2022/01/19 06:09:20;;;;;;;70.93;30.55;;;3.80;99.90;;;;;;6247303;22;20050;-79
2022/01/19 06:11:46;;;;;;;68.85;30.48;;;3.90;99.90;;;;;;6222616;22;20428;-78
2022/01/19 06:14:12;;;;;;;70.60;30.80;;;3.90;99.90;;;;;;6247312;22;20028;-80
2022/01/19 06:16:39;;;;;;;70.63;29.70;;;3.90;99.90;;;;;;6247672;22;20058;-82
2022/01/19 06:19:05;;;;;;;66.25;30.15;;;3.90;99.90;;;;;;6220964;22;20027;-80
2022/01/19 06:21:32;;;;;;;74.60;31.60;;;3.90;99.90;;;;;;6222598;22;20020;-82
2022/01/19 06:23:57;;;;;;;73.88;31.60;;;3.90;99.90;;;;;;6222474;22;20289;-78
2022/01/19 06:26:23;;;;;;;70.60;29.73;;;3.90;99.90;;;;;;6222653;22;20012;-81
2022/01/19 06:28:49;;;;;;;67.97;30.83;;;3.90;99.90;;;;;;6247281;22;20732;-81
2022/01/19 06:31:14;;;;;;;78.78;31.00;;;3.90;99.90;;;;;;6246873;22;20014;-79
2022/01/19 06:33:40;;;;;;;66.22;29.90;;;4.40;99.90;;;;;;6246364;22;20061;-82
2022/01/19 06:36:06;;;;;;;66.85;29.83;;;3.90;99.90;;;;;;6244850;22;20443;-79
2022/01/19 06:38:32;;;;;;;67.20;30.13;;;3.90;99.90;;;;;;6245960;22;20084;-79
2022/01/19 06:40:58;;;;;;;72.38;30.80;;;4.10;99.90;;;;;;6271313;22;20083;-80
2022/01/19 06:43:24;;;;;;;73.60;31.85;;;4.00;99.90;;;;;;6246852;22;20344;-79
2022/01/19 06:45:49;;;;;;;72.95;30.60;;;4.10;99.90;;;;;;6222103;22;20011;-81
2022/01/19 06:48:15;;;;;;;67.30;30.42;;;4.00;99.90;;;;;;6247180;22;20008;-78
2022/01/19 06:50:41;;;;;;;78.90;30.92;;;3.80;99.90;;;;;;6221456;22;20016;-80
2022/01/19 06:53:06;;;;;;;79.13;31.45;;;3.90;99.90;;;;;;6247346;22;20007;-80
2022/01/19 06:55:32;;;;;;;69.78;31.67;;;3.90;99.90;;;;;;6246811;22;20205;-81
2022/01/19 06:57:58;;;;;;;75.85;31.27;;;3.90;99.90;;;;;;6246576;22;20113;-78
2022/01/19 07:00:23;;;;;;;73.40;30.00;;;3.90;99.90;;;;;;6246982;22;20015;-79
2022/01/19 07:02:49;;;;;;;71.03;30.02;;;4.00;99.90;;;;;;6245513;22;20015;-79
2022/01/19 07:05:15;;;;;;;68.35;31.60;;;4.00;99.90;;;;;;6246770;22;20069;-78
2022/01/19 07:07:48;;;;;;;78.28;31.77;;;4.20;99.90;;;;;;6220588;22;20342;-79
2022/01/19 07:10:14;;;;;;;78.00;32.95;;;3.90;99.90;;;;;;6244060;22;20054;-79
2022/01/19 07:12:40;;;;;;;70.63;31.35;;;4.00;99.90;;;;;;6219491;22;20784;-80
2022/01/19 07:15:07;;;;;;;72.05;30.63;;;3.90;99.90;;;;;;6245288;22;20016;-80
2022/01/19 07:17:33;;;;;;;69.15;29.92;;;4.00;99.90;;;;;;6244811;22;20050;-79
2022/01/19 07:19:59;;;;;;;70.50;31.02;;;3.90;99.90;;;;;;6219958;22;20023;-79
2022/01/19 07:22:25;;;;;;;72.75;32.05;;;3.90;99.90;;;;;;6245431;22;20077;-80
2022/01/19 07:24:51;;;;;;;75.43;31.23;;;3.90;99.90;;;;;;6219725;22;20025;-81
2022/01/19 07:27:18;;;;;;;64.00;30.55;;;3.90;99.90;;;;;;6220266;22;20143;-80
2022/01/19 07:29:46;;;;;;;68.72;30.30;;;3.90;99.90;;;;;;6220651;22;20022;-80
2022/01/19 07:32:12;;;;;;;69.63;30.90;;;3.90;99.90;;;;;;6219499;22;20011;-79
2022/01/19 07:34:38;;;;;;;70.85;30.65;;;4.00;99.90;;;;;;6244788;22;20023;-81
2022/01/19 07:37:04;;;;;;;74.85;31.98;;;4.00;99.90;;;;;;6244034;22;20023;-78
2022/01/19 07:39:29;;;;;;;63.92;30.67;;;3.90;99.90;;;;;;6244953;22;20007;-79
2022/01/19 07:41:55;;;;;;;64.50;30.98;;;3.90;99.90;;;;;;6219988;22;20492;-80
2022/01/19 07:44:22;;;;;;;67.95;31.27;;;3.90;99.90;;;;;;6243731;22;20055;-80
2022/01/19 07:46:51;;;;;;;69.72;30.42;;;3.90;99.90;;;;;;6220406;22;20469;-80
2022/01/19 07:49:22;;;;;;;66.70;31.02;;;3.90;99.90;;;;;;6245680;22;20312;-81
2022/01/19 07:51:48;;;;;;;68.57;31.90;;;4.00;99.90;;;;;;6246676;22;20391;-79
2022/01/19 07:54:17;;;;;;;68.25;31.35;;;4.00;99.90;;;;;;6220112;22;20049;-79
2022/01/19 07:56:43;;;;;;;66.72;29.58;;;3.90;99.90;;;;;;6220512;22;20018;-80
2022/01/19 07:59:09;;;;;;;70.50;29.83;;;4.00;99.90;;;;;;6245462;22;20477;-80
2022/01/19 08:01:35;;;;;;;74.63;32.85;;;4.00;99.90;;;;;;6245223;22;20020;-79
2022/01/19 08:04:01;;;;;;;68.05;31.42;;;4.00;99.90;;;;;;6243951;22;20070;-80
2022/01/19 08:06:26;;;;;;;63.45;27.98;;;4.00;99.90;;;;;;6220924;22;20455;-79
2022/01/19 08:08:55;;;;;;;74.78;31.33;;;4.10;99.90;;;;;;6247813;22;20011;-79
2022/01/19 08:11:21;;;;;;;70.13;31.33;;;4.10;99.90;;;;;;6246035;22;20016;-80
2022/01/19 08:13:47;;;;;;;63.00;30.15;;;4.00;99.90;;;;;;6245144;22;20157;-79
2022/01/19 08:16:13;;;;;;;69.45;31.85;;;4.30;99.90;;;;;;6220157;22;20016;-80
2022/01/19 08:18:41;;;;;;;70.93;31.25;;;4.10;99.90;;;;;;6244728;22;20012;-79
2022/01/19 08:21:07;;;;;;;71.70;31.67;;;4.20;99.90;;;;;;6245202;22;20024;-79
2022/01/19 08:23:33;;;;;;;74.00;32.67;;;4.20;99.90;;;;;;6274294;22;20085;-80
2022/01/19 08:25:59;;;;;;;72.88;32.35;;;4.20;99.90;;;;;;6219721;22;20018;-80
2022/01/19 08:28:24;;;;;;;72.43;32.17;;;4.20;99.90;;;;;;6220217;22;20016;-80
2022/01/19 08:30:50;;;;;;;69.05;32.38;;;4.20;99.90;;;;;;6221399;22;20008;-80
2022/01/19 08:33:16;;;;;;;69.88;31.90;;;4.20;99.90;;;;;;6219331;22;20019;-79
2022/01/19 08:35:42;;;;;;;70.25;32.45;;;4.20;99.90;;;;;;6220698;22;20053;-79
2022/01/19 08:38:08;;;;;;;72.82;33.58;;;4.30;99.90;;;;;;6246095;22;20022;-79
2022/01/19 08:40:36;;;;;;;79.50;34.65;;;4.40;99.90;;;;;;6245781;22;20016;-80
2022/01/19 08:43:03;;;;;;;72.05;32.20;;;4.30;99.90;;;;;;6245408;22;20051;-80
2022/01/19 08:45:29;;;;;;;74.30;34.45;;;4.50;99.90;;;;;;6246581;22;20011;-80
2022/01/19 08:47:55;;;;;;;73.80;32.92;;;4.40;99.90;;;;;;6220189;22;20008;-80
2022/01/19 08:50:20;;;;;;;73.95;32.78;;;4.60;99.90;;;;;;6246858;22;20083;-79
2022/01/19 08:53:09;;;;;;;67.28;33.38;;;4.50;99.90;;;;;;6245268;22;20401;-81
2022/01/19 08:55:35;;;;;;;67.72;32.35;;;4.50;99.90;;;;;;6244427;22;20019;-81
2022/01/19 08:58:09;;;;;;;78.07;36.10;;;4.60;99.90;;;;;;6246079;22;20070;-82
2022/01/19 09:00:38;;;;;;;75.43;34.78;;;4.90;99.90;;;;;;6219410;22;20027;-77
2022/01/19 09:03:04;;;;;;;67.70;34.47;;;4.80;99.90;;;;;;6220612;22;20286;-79
2022/01/19 09:05:30;;;;;;;71.30;34.08;;;4.70;99.90;;;;;;6245726;22;20012;-78
2022/01/19 09:07:55;;;;;;;76.05;33.08;;;4.70;99.90;;;;;;6220793;22;20412;-78
2022/01/19 09:10:22;;;;;;;71.50;35.95;;;4.70;99.90;;;;;;6244817;22;20154;-80
2022/01/19 09:12:50;;;;;;;70.75;31.67;;;4.80;99.90;;;;;;6220320;22;20012;-80
2022/01/19 09:15:18;;;;;;;74.28;34.53;;;4.80;99.90;;;;;;6245088;22;20149;-78
2022/01/19 09:18:10;;;;;;;72.18;35.03;;;4.80;99.90;;;;;;6220770;22;20012;-80
2022/01/19 09:20:37;;;;;;;73.45;33.97;;;4.80;99.90;;;;;;6215424;22;20012;-80
2022/01/19 09:23:03;;;;;;;69.22;35.10;;;4.80;99.90;;;;;;6222614;22;20011;-80
2022/01/19 09:36:18;;;;;;;73.80;35.17;;;4.90;99.90;;;;;;6156550;23;20318;-79
2022/01/19 09:38:49;;;;;;;69.13;32.60;;;4.50;99.90;;;;;;6072195;23;20010;-82
2022/01/19 09:41:35;;;;;;;68.53;32.90;;;4.90;99.90;;;;;;6097358;23;20080;-83
2022/01/19 09:44:03;;;;;;;80.30;34.85;;;5.20;99.90;;;;;;6072825;23;20097;-79
2022/01/19 09:46:29;;;;;;;71.68;34.58;;;6.00;99.90;;;;;;6097753;23;20021;-77
2022/01/19 09:48:58;;;;;;;78.18;34.47;;;5.10;99.90;;;;;;6097862;23;20018;-78
2022/01/19 09:51:24;;;;;;;78.18;35.08;;;5.20;99.90;;;;;;6073002;23;20014;-78
2022/01/19 09:53:50;;;;;;;74.93;35.58;;;5.10;99.90;;;;;;6096670;23;20512;-80
2022/01/19 09:56:18;;;;;;;72.72;34.67;;;5.10;99.90;;;;;;6097144;23;20017;-79
2022/01/19 09:58:45;;;;;;;70.28;35.63;;;5.00;99.90;;;;;;6072771;23;20018;-80
2022/01/19 10:01:10;;;;;;;69.57;33.40;;;5.00;99.90;;;;;;6072656;23;20050;-80
2022/01/19 10:03:36;;;;;;;66.93;34.10;;;5.70;99.90;;;;;;6096982;23;20021;-78
2022/01/19 10:06:14;;;;;;;72.50;32.55;;;5.00;99.90;;;;;;6144299;23;20008;-78
2022/01/19 10:08:49;;;;;;;75.25;34.88;;;4.90;99.90;;;;;;6186193;23;20012;-79
2022/01/19 10:11:26;;;;;;;74.15;34.65;;;4.90;99.90;;;;;;6185508;23;20048;-79
2022/01/19 10:17:04;;;;;;;76.82;35.47;;;4.90;99.90;;;;;;6246900;22;20026;-79
2022/01/19 10:19:30;;;;;;;75.97;33.30;;;4.80;99.90;;;;;;6246621;22;20028;-78
2022/01/19 10:21:57;;;;;;;73.57;35.92;;;4.80;99.90;;;;;;6247581;22;20499;-81
2022/01/19 10:24:32;;;;;;;79.15;37.90;;;4.90;99.90;;;;;;6246125;22;20340;-78
2022/01/19 10:27:18;;;;;;;74.35;36.50;;;4.80;99.90;;;;;;6222477;22;20026;-79
2022/01/19 10:29:45;;;;;;;77.13;36.20;;;4.80;99.90;;;;;;6222676;22;20090;-80
2022/01/19 10:32:10;;;;;;;81.93;38.70;;;4.80;99.90;;;;;;6246507;22;20007;-81
2022/01/19 10:34:37;;;;;;;76.18;35.88;;;5.20;99.90;;;;;;6246548;22;20092;-80
2022/01/19 10:37:05;;;;;;;73.97;35.58;;;4.80;99.90;;;;;;6246315;22;20015;-81
2022/01/19 10:39:51;;;;;;;73.72;34.78;;;4.90;99.90;;;;;;6219273;22;20069;-79
2022/01/19 10:42:19;;;;;;;76.85;36.15;;;4.90;99.90;;;;;;6245284;22;20565;-78
2022/01/19 10:44:53;;;;;;;85.68;38.97;;;4.90;99.90;;;;;;6245889;22;20118;-81
2022/01/19 10:47:41;;;;;;;78.22;37.40;;;4.90;99.90;;;;;;6245719;22;20440;-78
2022/01/19 10:50:09;;;;;;;85.32;36.97;;;5.00;99.90;;;;;;6221283;22;20117;-77
2022/01/19 10:52:37;;;;;;;72.63;34.60;;;4.90;99.90;;;;;;6247718;22;20035;-78
2022/01/19 10:55:12;;;;;;;79.15;38.08;;;4.90;99.90;;;;;;6246393;22;20117;-75
2022/01/19 10:57:41;;;;;;;71.40;36.65;;;5.00;99.90;;;;;;6221479;22;20065;-78
2022/01/19 11:00:19;;;;;;;74.40;37.00;;;4.90;99.90;;;;;;6220677;22;20075;-77
2022/01/19 11:02:47;;;;;;;77.80;37.72;;;4.90;99.90;;;;;;6246341;22;20039;-77
2022/01/19 11:05:17;;;;;;;72.03;36.65;;;4.90;99.90;;;;;;6220103;22;20389;-80
2022/01/19 11:07:44;;;;;;;80.50;35.70;;;5.00;99.90;;;;;;6245825;22;20012;-79
2022/01/19 11:10:13;;;;;;;76.03;36.25;;;5.00;99.90;;;;;;6220562;22;20456;-79
2022/01/19 11:12:46;;;;;;;71.70;36.10;;;5.40;99.90;;;;;;6221186;22;20030;-80
2022/01/19 11:15:20;;;;;;;70.90;36.30;;;5.30;99.90;;;;;;6246128;22;20012;-80
2022/01/19 11:17:47;;;;;;;72.38;37.55;;;5.40;99.90;;;;;;6220472;22;20027;-77
2022/01/19 11:20:16;;;;;;;71.85;35.70;;;5.30;99.90;;;;;;6246868;22;20085;-81
2022/01/19 11:23:21;;;;;;;77.72;38.22;;;5.20;99.90;;;;;;6245948;22;20061;-80
2022/01/19 11:25:55;;;;;;;74.15;36.55;;;5.30;99.90;;;;;;6246147;22;20016;-82
2022/01/19 11:28:49;;;;;;;72.45;35.75;;;5.30;99.90;;;;;;6222460;22;20323;-82
2022/01/19 11:31:38;;;;;;;71.82;37.13;;;5.30;99.90;;;;;;6247981;22;20016;-82
2022/01/19 11:34:07;;;;;;;72.78;35.78;;;5.50;99.90;;;;;;6155691;23;20032;-83
2022/01/19 11:36:42;;;;;;;70.32;33.63;;;5.60;99.90;;;;;;6131825;23;20096;-81
2022/01/19 11:39:21;;;;;;;76.78;35.38;;;6.20;99.90;;;;;;6155491;23;20063;-79
2022/01/19 11:41:51;;;;;;;78.20;39.05;;;5.60;99.90;;;;;;6130878;23;20020;-81
2022/01/19 11:44:38;;;;;;;86.10;40.78;;;5.70;99.90;;;;;;6130248;23;20013;-83
2022/01/19 11:47:09;;;;;;;71.68;36.75;;;5.80;99.90;;;;;;6156049;23;20013;-77
2022/01/19 11:49:50;;;;;;;74.35;37.80;;;5.80;99.90;;;;;;6131491;23;20424;-80
2022/01/19 11:52:19;;;;;;;79.35;41.33;;;5.80;99.90;;;;;;6156006;23;20013;-79
2022/01/19 11:54:46;;;;;;;78.00;37.53;;;5.80;99.90;;;;;;6155646;23;20013;-82
2022/01/19 11:57:18;;;;;;;67.57;34.03;;;5.80;99.90;;;;;;6130745;23;20071;-78
2022/01/19 11:59:46;;;;;;;76.78;36.42;;;5.80;99.90;;;;;;6130385;23;20394;-85
2022/01/19 12:02:21;;;;;;;78.28;38.72;;;5.90;99.90;;;;;;6131076;23;20013;-82
2022/01/19 12:04:54;;;;;;;68.30;36.38;;;5.80;99.90;;;;;;6130644;23;20021;-78
2022/01/19 12:08:13;;;;;;;68.88;37.63;;;5.90;99.90;;;;;;6130522;23;20076;-79
2022/01/19 12:10:44;;;;;;;69.28;35.92;;;5.80;99.90;;;;;;6085864;23;20061;-78
2022/01/19 12:13:34;;;;;;;72.40;36.25;;;5.80;99.90;;;;;;6101395;23;20192;-79
2022/01/19 12:19:12;;;;;;;80.88;36.75;;;5.80;99.90;;;;;;6125638;23;20017;-82
2022/01/19 12:21:41;;;;;;;73.43;36.53;;;6.50;99.90;;;;;;6150956;23;20101;-81
2022/01/19 12:24:40;;;;;;;71.15;34.97;;;5.60;99.90;;;;;;6149615;23;20029;-80
2022/01/19 12:27:14;;;;;;;77.55;36.05;;;5.70;99.90;;;;;;6126084;23;20057;-80
2022/01/19 12:29:43;;;;;;;;;;;5.70;99.90;;;;;;6126469;23;20013;-80
2022/01/19 12:32:34;;;;;;;82.95;35.00;;;5.60;99.90;;;;;;6125900;23;19983;-80
2022/01/19 12:35:11;;;;;;;71.88;36.60;;;5.60;99.90;;;;;;6120957;23;20440;-80
2022/01/19 12:37:45;;;;;;;79.32;35.83;;;5.60;99.90;;;;;;6126703;23;20029;-80
2022/01/19 12:40:21;;;;;;;74.55;35.83;;;5.70;99.90;;;;;;6125647;23;20069;-80
2022/01/19 12:43:11;;;;;;;72.03;34.30;;;5.70;99.90;;;;;;6125964;23;20021;-80
2022/01/19 12:45:48;;;;;;;71.82;33.78;;;5.60;99.90;;;;;;6209836;22;20047;-81
2022/01/19 12:48:14;;;;;;;79.25;35.10;;;5.60;99.90;;;;;;6247042;22;20309;-80
2022/01/19 12:50:46;;;;;;;72.85;35.15;;;5.60;99.90;;;;;;6221138;22;20019;-80
2022/01/19 12:53:21;;;;;;;64.43;31.08;;;5.70;99.90;;;;;;6220772;22;20073;-80
2022/01/19 12:55:51;;;;;;;72.97;35.10;;;5.70;99.90;;;;;;6220423;22;20436;-80
2022/01/19 12:58:25;;;;;;;74.70;33.28;;;5.80;99.90;;;;;;6222534;22;20051;-81
2022/01/19 13:00:54;;;;;;;73.72;34.80;;;5.80;99.90;;;;;;6223412;22;20026;-80
2022/01/19 13:03:25;;;;;;;82.82;35.63;;;5.90;99.90;;;;;;6223142;22;20026;-81
2022/01/19 13:06:00;;;;;;;61.88;30.80;;;5.90;99.90;;;;;;6276065;22;20519;-81
2022/01/19 13:08:57;;;;;;;59.40;29.20;;;5.80;99.90;;;;;;6247893;22;20015;-80
2022/01/19 13:11:31;;;;;;;68.97;33.30;;;5.90;99.90;;;;;;6248343;22;20012;-81
2022/01/19 13:14:06;;;;;;;72.70;35.03;;;5.80;99.90;;;;;;6275182;22;20416;-80
2022/01/19 13:16:37;;;;;;;;;;;5.80;99.90;;;;;;6223198;22;20015;-81
2022/01/19 13:19:06;;;;;;;67.85;35.60;;;5.80;99.90;;;;;;6222841;22;20176;-80
2022/01/19 13:21:33;;;;;;;69.55;34.30;;;5.80;99.90;;;;;;6223107;22;20019;-80
2022/01/19 13:24:06;;;;;;;63.83;30.40;;;5.80;99.90;;;;;;6221342;22;20027;-81
2022/01/19 13:26:46;;;;;;;70.65;34.40;;;5.90;99.90;;;;;;6248270;22;20093;-80
2022/01/19 13:29:27;;;;;;;69.22;33.60;;;5.80;99.90;;;;;;6247146;22;20103;-81
2022/01/19 13:32:03;;;;;;;71.15;34.13;;;5.70;99.90;;;;;;6249213;22;20447;-80
2022/01/19 13:34:48;;;;;;;64.32;31.85;;;5.70;99.90;;;;;;6221588;22;20015;-81
2022/01/19 13:37:14;;;;;;;76.50;33.60;;;5.60;99.90;;;;;;6222080;22;20015;-80
2022/01/19 13:39:39;;;;;;;72.38;32.70;;;5.70;99.90;;;;;;6222251;22;20411;-81
2022/01/19 13:42:05;;;;;;;72.97;32.65;;;5.60;99.90;;;;;;6221292;22;20058;-81
2022/01/19 13:44:38;;;;;;;61.38;29.08;;;5.70;99.90;;;;;;6222083;22;20447;-81
2022/01/19 13:47:14;;;;;;;62.65;30.30;;;5.60;99.90;;;;;;6222353;22;20039;-80
2022/01/19 13:49:40;;;;;;;65.00;30.67;;;5.70;99.90;;;;;;6275663;22;20007;-80
2022/01/19 13:52:11;;;;;;;77.82;32.40;;;6.00;99.90;;;;;;6248715;22;20277;-81
2022/01/19 13:54:39;;;;;;;66.70;31.52;;;5.60;99.90;;;;;;6222541;22;20020;-81
2022/01/19 13:57:07;;;;;;;70.30;28.55;;;6.60;99.90;;;;;;6246030;22;20436;-81
2022/01/19 13:59:33;;;;;;;63.95;27.73;;;5.60;99.90;;;;;;6220613;22;20019;-78
2022/01/19 14:02:03;;;;;;;65.95;28.33;;;5.60;99.90;;;;;;6221687;22;20016;-76
2022/01/19 14:04:32;;;;;;;59.33;27.65;;;5.60;99.90;;;;;;6246759;22;20043;-76
2022/01/19 14:07:03;;;;;;;59.05;25.52;;;5.60;99.90;;;;;;6247612;22;20224;-76
2022/01/19 14:09:31;;;;;;;62.42;25.92;;;5.50;99.90;;;;;;6246082;22;20022;-76
2022/01/19 14:12:13;;;;;;;61.90;25.73;;;5.70;99.90;;;;;;6221843;22;20281;-76
2022/01/19 14:14:48;;;;;;;49.28;24.05;;;5.50;99.90;;;;;;6220983;22;20020;-79
2022/01/19 14:17:23;;;;;;;59.33;25.23;;;5.60;99.90;;;;;;6220782;22;20019;-79
2022/01/19 14:19:50;;;;;;;61.00;25.27;;;5.50;99.90;;;;;;6222098;22;20051;-78
2022/01/19 14:22:21;;;;;;;65.95;23.42;;;5.50;99.90;;;;;;6222674;22;20428;-78
2022/01/19 14:24:47;;;;;;;67.95;24.70;;;5.50;99.90;;;;;;6247157;22;20020;-78
2022/01/19 14:27:16;;;;;;;55.35;22.75;;;5.40;99.90;;;;;;6220650;22;20384;-78